Time;durP1;ratioP1;P1;durP2;ratioP2;P2;SDS_P1;SDS_P2;PMS_P1;PMS_P2;Temp;Humidity;BMP_temperature;BMP_pressure;BME280_temperature;BME280_humidity;BME280_pressure;Samples;Min_cycle;Max_cycle;Signal;HPM_P1;HPM_P2
2023/12/20 00:00:50;;;;;;;2.58;1.13;;;;;;;;;;5053838;28;20054;-54
2023/12/20 00:03:16;;;;;;;2.40;0.85;;;;;;;;;;5053719;28;20031;-53
2023/12/20 00:05:42;;;;;;;2.50;1.08;;;;;;;;;;5054247;28;20359;-55
2023/12/20 00:08:08;;;;;;;1.35;0.80;;;;;;;;;;5054588;28;20032;-54
2023/12/20 00:10:34;;;;;;;1.85;1.15;;;;;;;;;;5053955;28;20029;-53
2023/12/20 00:13:00;;;;;;;1.67;0.73;;;;;;;;;;5053621;28;20033;-51
2023/12/20 00:15:26;;;;;;;2.13;1.08;;;;;;;;;;5054061;28;20114;-56
2023/12/20 00:17:52;;;;;;;1.70;0.90;;;;;;;;;;5053892;28;20032;-54
2023/12/20 00:20:18;;;;;;;1.52;0.85;;;;;;;;;;5053527;28;20028;-55
2023/12/20 00:22:44;;;;;;;2.33;1.13;;;;;;;;;;5053879;28;20021;-54
2023/12/20 00:25:10;;;;;;;1.63;1.00;;;;;;;;;;5053658;28;20036;-53
2023/12/20 00:27:36;;;;;;;1.15;0.50;;;;;;;;;;5053313;28;20027;-55
2023/12/20 00:30:02;;;;;;;1.88;0.90;;;;;;;;;;5053202;28;20091;-52
2023/12/20 00:32:28;;;;;;;2.47;1.00;;;;;;;;;;5053878;28;20025;-53
2023/12/20 00:34:54;;;;;;;1.00;0.60;;;;;;;;;;5053799;28;20029;-55
2023/12/20 00:37:20;;;;;;;1.45;0.60;;;;;;;;;;5053977;28;20029;-54
2023/12/20 00:39:46;;;;;;;1.20;0.60;;;;;;;;;;5053921;28;20029;-55
2023/12/20 00:42:12;;;;;;;0.90;0.50;;;;;;;;;;5053186;28;20025;-53
2023/12/20 00:44:38;;;;;;;1.38;0.63;;;;;;;;;;5053423;28;20028;-54
2023/12/20 00:47:03;;;;;;;2.80;0.82;;;;;;;;;;5057013;28;20028;-52
2023/12/20 00:49:29;;;;;;;0.90;0.50;;;;;;;;;;5057824;28;20033;-52
2023/12/20 00:51:55;;;;;;;1.45;0.70;;;;;;;;;;5057049;28;20025;-56
2023/12/20 00:54:21;;;;;;;0.93;0.50;;;;;;;;;;5057270;28;20028;-55
2023/12/20 00:56:47;;;;;;;1.63;0.73;;;;;;;;;;5055857;28;20067;-52
2023/12/20 00:59:14;;;;;;;1.67;0.75;;;;;;;;;;5057937;28;20075;-54
2023/12/20 01:01:40;;;;;;;1.70;0.80;;;;;;;;;;5056772;28;20502;-52
2023/12/20 01:04:06;;;;;;;1.27;0.55;;;;;;;;;;5057077;28;20071;-54
2023/12/20 01:06:32;;;;;;;0.95;0.50;;;;;;;;;;5057012;28;20075;-55
2023/12/20 01:08:58;;;;;;;1.55;0.82;;;;;;;;;;5057067;28;20036;-50
2023/12/20 01:11:24;;;;;;;0.82;0.38;;;;;;;;;;5056963;28;20021;-51
2023/12/20 01:13:50;;;;;;;0.68;0.35;;;;;;;;;;5056885;28;20028;-54
2023/12/20 01:16:16;;;;;;;4.30;0.90;;;;;;;;;;5057368;28;20359;-54
2023/12/20 01:18:41;;;;;;;2.38;0.70;;;;;;;;;;5057249;28;20473;-55
2023/12/20 01:21:07;;;;;;;1.13;0.60;;;;;;;;;;5056793;28;20074;-54
2023/12/20 01:23:33;;;;;;;1.27;0.65;;;;;;;;;;5056567;28;20093;-55
2023/12/20 01:25:59;;;;;;;2.05;1.00;;;;;;;;;;5056630;28;20037;-54
2023/12/20 01:28:26;;;;;;;2.42;0.70;;;;;;;;;;5057458;28;20127;-54
2023/12/20 01:30:52;;;;;;;0.90;0.60;;;;;;;;;;5056606;28;20478;-52
2023/12/20 01:33:18;;;;;;;2.38;0.80;;;;;;;;;;5056504;28;20446;-53
2023/12/20 01:35:44;;;;;;;1.30;0.70;;;;;;;;;;5056435;28;20064;-53
2023/12/20 01:38:10;;;;;;;0.85;0.45;;;;;;;;;;5056922;28;20064;-51
2023/12/20 01:40:36;;;;;;;1.45;0.60;;;;;;;;;;5056694;28;20064;-54
2023/12/20 01:43:03;;;;;;;1.35;0.63;;;;;;;;;;5056057;28;20029;-53
2023/12/20 01:45:29;;;;;;;1.60;0.68;;;;;;;;;;5056872;28;20358;-49
2023/12/20 01:47:55;;;;;;;1.45;0.68;;;;;;;;;;5056806;28;20029;-51
2023/12/20 01:50:22;;;;;;;1.73;0.73;;;;;;;;;;5056943;28;20152;-54
2023/12/20 01:52:48;;;;;;;1.33;0.70;;;;;;;;;;5056107;28;20108;-53
2023/12/20 01:55:15;;;;;;;1.45;0.70;;;;;;;;;;5055996;28;20045;-51
2023/12/20 01:57:41;;;;;;;1.77;0.52;;;;;;;;;;5055364;28;20029;-54
2023/12/20 02:00:09;;;;;;;1.52;0.85;;;;;;;;;;5056848;28;20439;-50
2023/12/20 02:02:37;;;;;;;1.08;0.55;;;;;;;;;;5056419;28;20025;-51
2023/12/20 02:05:03;;;;;;;1.80;0.88;;;;;;;;;;5055679;28;20036;-50
2023/12/20 02:07:30;;;;;;;1.85;0.70;;;;;;;;;;5056257;28;20033;-52
2023/12/20 02:09:57;;;;;;;1.48;0.63;;;;;;;;;;5056621;28;20075;-50
2023/12/20 02:12:23;;;;;;;2.92;0.60;;;;;;;;;;5056295;28;20378;-51
2023/12/20 02:14:49;;;;;;;1.40;0.80;;;;;;;;;;5056036;28;20025;-51
2023/12/20 02:17:15;;;;;;;1.65;0.68;;;;;;;;;;5056035;28;20104;-52
2023/12/20 02:19:41;;;;;;;1.23;0.60;;;;;;;;;;5055616;28;20032;-49
2023/12/20 02:22:10;;;;;;;1.77;0.50;;;;;;;;;;5055426;28;20025;-50
2023/12/20 02:24:36;;;;;;;1.58;0.70;;;;;;;;;;5055587;28;20032;-53
2023/12/20 02:27:03;;;;;;;1.83;0.60;;;;;;;;;;5056080;28;20032;-50
2023/12/20 02:29:29;;;;;;;1.23;0.57;;;;;;;;;;5055427;28;20036;-51
2023/12/20 02:31:55;;;;;;;1.30;0.55;;;;;;;;;;5055398;28;20029;-50
2023/12/20 02:34:21;;;;;;;1.35;0.77;;;;;;;;;;5055908;28;20364;-50
2023/12/20 02:36:47;;;;;;;1.17;0.68;;;;;;;;;;5055224;28;20029;-50
2023/12/20 02:39:13;;;;;;;0.90;0.40;;;;;;;;;;5056202;28;20439;-52
2023/12/20 02:41:39;;;;;;;1.00;0.50;;;;;;;;;;5056050;28;20043;-51
2023/12/20 02:44:04;;;;;;;0.98;0.40;;;;;;;;;;5054926;28;20530;-52
2023/12/20 02:46:31;;;;;;;2.75;0.50;;;;;;;;;;5055114;28;20516;-54
2023/12/20 02:48:56;;;;;;;1.33;0.73;;;;;;;;;;5055159;28;20033;-56
2023/12/20 02:51:22;;;;;;;1.65;0.73;;;;;;;;;;5055022;28;20017;-56
2023/12/20 02:53:49;;;;;;;1.70;0.68;;;;;;;;;;5054969;28;20116;-56
2023/12/20 02:56:15;;;;;;;1.10;0.60;;;;;;;;;;5055447;28;20045;-56
2023/12/20 02:58:41;;;;;;;0.90;0.40;;;;;;;;;;5054771;28;20051;-52
2023/12/20 03:01:07;;;;;;;0.57;0.30;;;;;;;;;;5054921;28;20463;-56
2023/12/20 03:03:36;;;;;;;1.70;0.70;;;;;;;;;;5054565;28;20029;-54
2023/12/20 03:06:02;;;;;;;1.33;0.47;;;;;;;;;;5055293;28;20029;-55
2023/12/20 03:08:28;;;;;;;1.42;0.52;;;;;;;;;;5054662;28;20033;-56
2023/12/20 03:10:54;;;;;;;0.90;0.45;;;;;;;;;;5055013;28;20056;-54
2023/12/20 03:13:20;;;;;;;1.08;0.22;;;;;;;;;;5054917;28;20060;-54
2023/12/20 03:15:46;;;;;;;0.63;0.30;;;;;;;;;;5054638;28;20024;-56
2023/12/20 03:18:12;;;;;;;0.98;0.40;;;;;;;;;;5054558;28;20028;-53
2023/12/20 03:20:38;;;;;;;0.60;0.30;;;;;;;;;;5054519;28;20025;-56
2023/12/20 03:23:04;;;;;;;1.40;0.70;;;;;;;;;;5054738;28;20021;-54
2023/12/20 03:25:30;;;;;;;1.13;0.40;;;;;;;;;;5054719;28;20056;-56
2023/12/20 03:27:56;;;;;;;1.27;0.50;;;;;;;;;;5054657;28;20479;-52
2023/12/20 03:30:22;;;;;;;1.75;0.70;;;;;;;;;;5054291;28;20052;-54
2023/12/20 03:32:48;;;;;;;0.57;0.30;;;;;;;;;;5055124;28;20162;-56
2023/12/20 03:35:14;;;;;;;1.33;0.63;;;;;;;;;;5054741;28;20056;-54
2023/12/20 03:37:40;;;;;;;1.60;0.75;;;;;;;;;;5054890;28;20455;-54
2023/12/20 03:40:06;;;;;;;1.58;0.63;;;;;;;;;;5054086;28;20525;-55
2023/12/20 03:42:32;;;;;;;1.83;0.63;;;;;;;;;;5054056;28;20025;-56
2023/12/20 03:44:58;;;;;;;1.10;0.50;;;;;;;;;;5054381;28;20074;-49
2023/12/20 03:47:23;;;;;;;0.75;0.32;;;;;;;;;;5054588;28;20029;-55
2023/12/20 03:49:49;;;;;;;0.52;0.22;;;;;;;;;;5053996;28;20451;-56
2023/12/20 03:52:15;;;;;;;0.80;0.40;;;;;;;;;;5054023;28;20100;-51
2023/12/20 03:54:42;;;;;;;0.57;0.20;;;;;;;;;;5053748;28;20067;-55
2023/12/20 03:57:08;;;;;;;0.93;0.17;;;;;;;;;;5054285;28;20025;-53
2023/12/20 03:59:38;;;;;;;0.75;0.30;;;;;;;;;;5053577;28;20072;-50
2023/12/20 04:02:04;;;;;;;0.70;0.30;;;;;;;;;;5053778;28;20029;-54
2023/12/20 04:04:30;;;;;;;0.65;0.43;;;;;;;;;;5053820;28;20040;-52
2023/12/20 04:06:56;;;;;;;0.55;0.20;;;;;;;;;;5053780;28;20417;-56
2023/12/20 04:09:22;;;;;;;0.13;0.03;;;;;;;;;;5053797;28;20029;-55
2023/12/20 04:11:48;;;;;;;0.45;0.20;;;;;;;;;;5053723;28;20029;-53
2023/12/20 04:14:14;;;;;;;0.65;0.10;;;;;;;;;;5054231;28;20029;-52
2023/12/20 04:16:40;;;;;;;0.10;0.00;;;;;;;;;;5053886;28;20340;-53
2023/12/20 04:19:06;;;;;;;0.38;0.20;;;;;;;;;;5053953;28;20022;-54
2023/12/20 04:21:32;;;;;;;0.25;0.10;;;;;;;;;;5053621;28;20036;-51
2023/12/20 04:23:58;;;;;;;0.47;0.15;;;;;;;;;;5053508;28;20112;-53
2023/12/20 04:26:24;;;;;;;0.10;0.05;;;;;;;;;;5053529;28;20104;-52
2023/12/20 04:28:49;;;;;;;0.22;0.10;;;;;;;;;;5054487;28;20344;-53
2023/12/20 04:31:15;;;;;;;0.52;0.10;;;;;;;;;;5053231;28;20022;-53
2023/12/20 04:33:41;;;;;;;0.10;0.00;;;;;;;;;;5053473;28;20516;-51
2023/12/20 04:36:08;;;;;;;1.90;0.45;;;;;;;;;;5054059;28;20060;-55
2023/12/20 04:38:34;;;;;;;0.88;0.10;;;;;;;;;;5053442;28;20040;-51
2023/12/20 04:41:00;;;;;;;4.68;0.20;;;;;;;;;;5053387;28;20025;-51
2023/12/20 04:43:26;;;;;;;0.25;0.10;;;;;;;;;;5053909;28;20023;-54
2023/12/20 04:45:52;;;;;;;0.68;0.10;;;;;;;;;;5053419;28;20124;-50
2023/12/20 04:48:18;;;;;;;0.00;0.00;;;;;;;;;;5053568;28;20386;-55
2023/12/20 04:50:44;;;;;;;0.10;0.08;;;;;;;;;;5053641;28;20029;-54
2023/12/20 04:53:10;;;;;;;0.15;0.15;;;;;;;;;;5053289;28;20086;-53
2023/12/20 04:55:36;;;;;;;0.00;0.00;;;;;;;;;;5053712;28;20045;-55
2023/12/20 04:58:02;;;;;;;0.25;0.10;;;;;;;;;;5053321;28;20029;-53
2023/12/20 05:00:31;;;;;;;0.08;0.03;;;;;;;;;;5053246;28;20040;-51
2023/12/20 05:02:57;;;;;;;0.10;0.10;;;;;;;;;;5053264;28;20079;-55
2023/12/20 05:05:23;;;;;;;0.55;0.17;;;;;;;;;;5053343;28;20025;-53
2023/12/20 05:07:49;;;;;;;0.10;0.03;;;;;;;;;;5054116;28;20048;-56
2023/12/20 05:10:15;;;;;;;0.40;0.20;;;;;;;;;;5053272;28;20021;-53
2023/12/20 05:12:41;;;;;;;0.00;0.00;;;;;;;;;;5053148;28;20029;-53
2023/12/20 05:15:07;;;;;;;0.10;0.10;;;;;;;;;;5053527;28;20455;-53
2023/12/20 05:17:33;;;;;;;0.20;0.10;;;;;;;;;;5053373;28;20033;-56
2023/12/20 05:19:59;;;;;;;0.55;0.30;;;;;;;;;;5053236;28;20033;-49
2023/12/20 05:22:25;;;;;;;0.68;0.20;;;;;;;;;;5053401;28;20029;-56
2023/12/20 05:24:51;;;;;;;0.57;0.30;;;;;;;;;;5053101;28;20032;-55
2023/12/20 05:27:17;;;;;;;0.63;0.22;;;;;;;;;;5053374;28;20461;-55
2023/12/20 05:29:43;;;;;;;1.27;0.30;;;;;;;;;;5052949;28;20095;-55
2023/12/20 05:32:09;;;;;;;1.10;0.32;;;;;;;;;;5052432;28;20104;-56
2023/12/20 05:34:35;;;;;;;0.55;0.20;;;;;;;;;;5056837;28;20112;-53
2023/12/20 05:37:01;;;;;;;0.40;0.20;;;;;;;;;;5056985;28;20056;-55
2023/12/20 05:39:27;;;;;;;0.88;0.15;;;;;;;;;;5055906;28;20029;-53
2023/12/20 05:41:53;;;;;;;0.32;0.20;;;;;;;;;;5057036;28;20021;-55
2023/12/20 05:44:19;;;;;;;0.43;0.20;;;;;;;;;;5056537;28;20025;-55
2023/12/20 05:46:45;;;;;;;0.32;0.10;;;;;;;;;;5056273;28;20142;-56
2023/12/20 05:49:11;;;;;;;0.35;0.20;;;;;;;;;;5056404;28;20032;-56
2023/12/20 05:51:37;;;;;;;0.20;0.17;;;;;;;;;;5056127;28;20039;-55
2023/12/20 05:54:04;;;;;;;0.47;0.20;;;;;;;;;;5057013;28;20025;-53
2023/12/20 05:56:30;;;;;;;3.15;0.47;;;;;;;;;;5055575;28;20377;-56
2023/12/20 05:58:55;;;;;;;0.50;0.30;;;;;;;;;;5055779;28;20033;-53
2023/12/20 06:01:21;;;;;;;0.73;0.40;;;;;;;;;;5055886;28;20029;-55
2023/12/20 06:03:47;;;;;;;0.63;0.30;;;;;;;;;;5056277;28;20029;-57
2023/12/20 06:06:13;;;;;;;0.93;0.30;;;;;;;;;;5056025;28;20025;-57
2023/12/20 06:08:39;;;;;;;5.30;0.60;;;;;;;;;;5056400;28;20366;-56
2023/12/20 06:11:05;;;;;;;0.60;0.30;;;;;;;;;;5055791;28;20035;-57
2023/12/20 06:13:31;;;;;;;0.65;0.30;;;;;;;;;;5055862;28;20063;-54
2023/12/20 06:15:57;;;;;;;0.75;0.30;;;;;;;;;;5056516;28;20037;-56
2023/12/20 06:18:24;;;;;;;3.08;0.60;;;;;;;;;;5055802;28;20040;-56
2023/12/20 06:20:50;;;;;;;0.77;0.32;;;;;;;;;;5056325;28;20059;-56
2023/12/20 06:23:16;;;;;;;0.77;0.38;;;;;;;;;;5055703;28;20025;-56
2023/12/20 06:25:42;;;;;;;9.65;0.90;;;;;;;;;;5055602;28;20021;-58
2023/12/20 06:28:10;;;;;;;0.68;0.30;;;;;;;;;;5056469;28;20028;-59
2023/12/20 06:30:36;;;;;;;1.05;0.40;;;;;;;;;;5055515;28;20108;-58
2023/12/20 06:33:01;;;;;;;0.80;0.40;;;;;;;;;;5055451;28;20053;-58
2023/12/20 06:35:28;;;;;;;0.70;0.30;;;;;;;;;;5055748;28;20025;-59
2023/12/20 06:37:54;;;;;;;0.20;0.10;;;;;;;;;;5055779;28;20059;-54
2023/12/20 06:40:20;;;;;;;0.50;0.25;;;;;;;;;;5055397;28;20478;-58
2023/12/20 06:42:46;;;;;;;1.05;0.43;;;;;;;;;;5054855;28;20482;-59
2023/12/20 06:45:12;;;;;;;0.75;0.32;;;;;;;;;;5054667;28;20068;-59
2023/12/20 06:47:38;;;;;;;0.80;0.45;;;;;;;;;;5055192;28;20029;-58
2023/12/20 06:50:05;;;;;;;1.02;0.38;;;;;;;;;;5055111;28;20032;-59
2023/12/20 06:52:30;;;;;;;2.88;0.52;;;;;;;;;;5055136;28;20029;-59
2023/12/20 06:54:56;;;;;;;0.95;0.40;;;;;;;;;;5054821;28;20060;-59
2023/12/20 06:57:23;;;;;;;1.23;0.50;;;;;;;;;;5055432;28;20028;-57
2023/12/20 06:59:49;;;;;;;0.98;0.45;;;;;;;;;;5054874;28;20075;-59
2023/12/20 07:02:15;;;;;;;1.88;0.75;;;;;;;;;;5054532;28;20021;-59
2023/12/20 07:04:41;;;;;;;1.05;0.50;;;;;;;;;;5055001;28;20439;-58
2023/12/20 07:07:07;;;;;;;1.20;0.45;;;;;;;;;;5055666;28;20025;-59
2023/12/20 07:09:33;;;;;;;1.20;0.60;;;;;;;;;;5055486;28;20028;-59
2023/12/20 07:11:59;;;;;;;1.33;0.68;;;;;;;;;;5054929;28;20104;-59
2023/12/20 07:14:25;;;;;;;1.20;0.60;;;;;;;;;;5055205;28;20049;-58
2023/12/20 07:16:51;;;;;;;1.63;0.73;;;;;;;;;;5055220;28;20052;-58
2023/12/20 07:19:17;;;;;;;1.15;0.55;;;;;;;;;;5054937;28;20028;-59
2023/12/20 07:21:43;;;;;;;1.92;0.52;;;;;;;;;;5055104;28;20472;-58
2023/12/20 07:24:10;;;;;;;1.08;0.50;;;;;;;;;;5054492;28;20017;-59
2023/12/20 07:26:37;;;;;;;1.23;0.68;;;;;;;;;;5054656;28;20447;-59
2023/12/20 07:29:04;;;;;;;1.15;0.50;;;;;;;;;;5054354;28;20471;-56
2023/12/20 07:31:30;;;;;;;1.00;0.60;;;;;;;;;;5054365;28;20031;-59
2023/12/20 07:33:56;;;;;;;0.90;0.60;;;;;;;;;;5054385;28;20057;-59
2023/12/20 07:36:22;;;;;;;1.10;0.50;;;;;;;;;;5054626;28;20063;-59
2023/12/20 07:38:48;;;;;;;1.17;0.65;;;;;;;;;;5054689;28;20118;-59
2023/12/20 07:41:15;;;;;;;3.85;0.77;;;;;;;;;;5054256;28;20036;-59
2023/12/20 07:43:41;;;;;;;4.70;0.75;;;;;;;;;;5054246;28;20056;-58
2023/12/20 07:46:08;;;;;;;4.45;1.23;;;;;;;;;;5054702;28;20025;-59
2023/12/20 07:48:35;;;;;;;2.63;1.70;;;;;;;;;;5055036;28;20032;-57
2023/12/20 07:51:01;;;;;;;3.58;1.48;;;;;;;;;;5054454;28;20107;-57
2023/12/20 07:53:27;;;;;;;2.15;1.45;;;;;;;;;;5054894;28;20105;-58
2023/12/20 07:55:53;;;;;;;2.33;1.42;;;;;;;;;;5053407;28;20049;-58
2023/12/20 07:58:19;;;;;;;2.60;1.77;;;;;;;;;;5053578;28;20036;-56
2023/12/20 08:00:45;;;;;;;2.40;1.63;;;;;;;;;;5054234;28;20459;-55
2023/12/20 08:03:11;;;;;;;4.55;2.58;;;;;;;;;;5053873;28;20032;-57
2023/12/20 08:05:38;;;;;;;5.93;2.33;;;;;;;;;;5053903;28;20029;-56
2023/12/20 08:08:04;;;;;;;4.03;2.55;;;;;;;;;;5054127;28;20036;-57
2023/12/20 08:10:30;;;;;;;4.53;2.72;;;;;;;;;;5053893;28;20378;-55
2023/12/20 08:12:56;;;;;;;4.10;2.85;;;;;;;;;;5053781;28;20021;-54
2023/12/20 08:15:23;;;;;;;3.88;2.63;;;;;;;;;;5054004;28;20498;-58
2023/12/20 08:17:50;;;;;;;3.70;2.72;;;;;;;;;;5054296;28;20040;-56
2023/12/20 08:20:16;;;;;;;3.75;2.78;;;;;;;;;;5054296;28;20024;-56
2023/12/20 08:22:42;;;;;;;4.22;3.00;;;;;;;;;;5053975;28;20112;-52
2023/12/20 08:25:08;;;;;;;6.80;3.67;;;;;;;;;;5053693;28;20064;-50
2023/12/20 08:27:34;;;;;;;5.25;2.65;;;;;;;;;;5053671;28;20125;-53
2023/12/20 08:30:00;;;;;;;4.40;2.65;;;;;;;;;;5053850;28;20031;-53
2023/12/20 08:32:27;;;;;;;8.70;3.10;;;;;;;;;;5053637;28;20434;-54
2023/12/20 08:34:52;;;;;;;4.72;3.35;;;;;;;;;;5054236;28;20068;-52
2023/12/20 08:37:18;;;;;;;5.28;3.50;;;;;;;;;;5054055;28;20056;-53
2023/12/20 08:39:44;;;;;;;4.85;3.20;;;;;;;;;;5053243;28;20063;-52
2023/12/20 08:42:10;;;;;;;4.90;3.45;;;;;;;;;;5054016;28;20033;-54
2023/12/20 08:44:36;;;;;;;4.13;3.20;;;;;;;;;;5053424;28;20028;-52
2023/12/20 08:47:02;;;;;;;4.60;3.13;;;;;;;;;;5053744;28;20036;-56
2023/12/20 08:49:28;;;;;;;7.80;3.42;;;;;;;;;;5053030;28;20025;-55
2023/12/20 08:51:54;;;;;;;4.07;3.03;;;;;;;;;;5053902;28;20051;-56
2023/12/20 08:54:20;;;;;;;4.25;3.28;;;;;;;;;;5053044;28;20486;-56
2023/12/20 08:56:47;;;;;;;4.70;3.28;;;;;;;;;;5053915;28;20117;-55
2023/12/20 08:59:13;;;;;;;5.90;3.38;;;;;;;;;;5053686;28;20371;-54
2023/12/20 09:01:39;;;;;;;4.60;3.50;;;;;;;;;;5052950;28;20025;-56
2023/12/20 09:04:06;;;;;;;3.72;3.13;;;;;;;;;;5053454;28;20025;-54
2023/12/20 09:06:32;;;;;;;3.28;2.70;;;;;;;;;;5053958;28;20506;-56
2023/12/20 09:08:58;;;;;;;3.55;2.88;;;;;;;;;;5057668;28;20068;-58
2023/12/20 09:11:25;;;;;;;3.58;2.80;;;;;;;;;;5057274;28;20021;-58
2023/12/20 09:13:51;;;;;;;3.90;2.63;;;;;;;;;;5056832;28;20071;-58
2023/12/20 09:16:17;;;;;;;5.30;3.53;;;;;;;;;;5056816;28;20344;-58
2023/12/20 09:18:43;;;;;;;4.38;2.70;;;;;;;;;;5057407;28;20051;-57
2023/12/20 09:21:09;;;;;;;4.18;2.83;;;;;;;;;;5057229;28;20471;-58
2023/12/20 09:23:36;;;;;;;3.88;2.83;;;;;;;;;;5056685;28;20025;-58
2023/12/20 09:26:02;;;;;;;3.42;2.78;;;;;;;;;;5057159;28;20032;-59
2023/12/20 09:28:28;;;;;;;5.78;2.85;;;;;;;;;;5057185;28;20367;-56
2023/12/20 09:30:54;;;;;;;3.85;3.05;;;;;;;;;;5056617;28;20017;-57
2023/12/20 09:33:20;;;;;;;5.40;2.53;;;;;;;;;;5056843;28;20459;-56
2023/12/20 09:35:47;;;;;;;4.53;2.67;;;;;;;;;;5056585;28;20064;-54
2023/12/20 09:38:15;;;;;;;5.22;3.08;;;;;;;;;;5056828;28;20021;-57
2023/12/20 09:40:42;;;;;;;5.32;2.72;;;;;;;;;;5056597;28;20115;-56
2023/12/20 09:43:14;;;;;;;4.88;2.65;;;;;;;;;;5056703;28;20021;-55
2023/12/20 09:45:41;;;;;;;5.53;2.10;;;;;;;;;;5057349;28;20436;-57
2023/12/20 09:48:07;;;;;;;5.18;2.50;;;;;;;;;;5056388;28;20068;-56
2023/12/20 09:50:33;;;;;;;8.88;2.35;;;;;;;;;;5056209;28;20411;-54
2023/12/20 09:53:01;;;;;;;3.72;1.40;;;;;;;;;;5055961;28;20051;-56
2023/12/20 09:55:28;;;;;;;7.70;2.60;;;;;;;;;;5056598;28;20045;-56
2023/12/20 09:57:54;;;;;;;7.10;2.40;;;;;;;;;;5056047;28;20029;-57
2023/12/20 10:00:20;;;;;;;8.27;2.05;;;;;;;;;;5056102;28;20037;-57
2023/12/20 10:02:51;;;;;;;6.78;2.13;;;;;;;;;;5056148;28;20029;-57
2023/12/20 10:05:20;;;;;;;2.35;1.40;;;;;;;;;;5056521;28;20117;-56
2023/12/20 10:07:49;;;;;;;2.83;1.30;;;;;;;;;;5056659;28;20033;-56
2023/12/20 10:10:15;;;;;;;3.05;1.45;;;;;;;;;;5055515;28;20029;-56
2023/12/20 10:12:42;;;;;;;7.07;1.77;;;;;;;;;;5055537;28;20057;-57
2023/12/20 10:15:10;;;;;;;5.35;1.45;;;;;;;;;;5055563;28;20085;-57
2023/12/20 10:17:36;;;;;;;5.45;1.20;;;;;;;;;;5056075;28;20478;-57
2023/12/20 10:20:02;;;;;;;2.20;1.20;;;;;;;;;;5055480;28;20033;-57
2023/12/20 10:22:28;;;;;;;2.22;1.30;;;;;;;;;;5055810;28;20112;-54
2023/12/20 10:24:57;;;;;;;3.45;1.58;;;;;;;;;;5055958;28;20064;-57
2023/12/20 10:27:23;;;;;;;3.10;1.58;;;;;;;;;;5055879;28;20036;-57
2023/12/20 10:29:49;;;;;;;2.28;0.80;;;;;;;;;;5055627;28;20029;-56
2023/12/20 10:32:26;;;;;;;2.10;0.80;;;;;;;;;;5056002;28;20021;-57
2023/12/20 10:34:56;;;;;;;4.80;2.15;;;;;;;;;;5055754;28;20035;-56
2023/12/20 10:37:22;;;;;;;4.80;1.07;;;;;;;;;;5055390;28;20033;-52
2023/12/20 10:39:57;;;;;;;3.60;1.40;;;;;;;;;;5054113;28;20260;-56
2023/12/20 10:42:25;;;;;;;6.97;1.80;;;;;;;;;;5055628;28;20104;-54
2023/12/20 10:44:51;;;;;;;7.93;1.20;;;;;;;;;;5055270;28;20033;-55
2023/12/20 10:47:17;;;;;;;1.15;0.80;;;;;;;;;;5055746;28;20116;-55
2023/12/20 10:49:44;;;;;;;4.88;1.00;;;;;;;;;;5055685;28;20028;-54
2023/12/20 10:52:10;;;;;;;3.42;1.17;;;;;;;;;;5055622;28;20033;-54
2023/12/20 10:54:36;;;;;;;6.00;1.35;;;;;;;;;;5055267;28;20036;-57
2023/12/20 10:57:05;;;;;;;5.88;1.45;;;;;;;;;;5054517;28;20025;-57
2023/12/20 10:59:33;;;;;;;1.33;0.75;;;;;;;;;;5054668;28;20029;-55
2023/12/20 11:02:00;;;;;;;12.15;4.75;;;;;;;;;;5054912;28;20029;-56
2023/12/20 11:04:47;;;;;;;3.88;1.90;;;;;;;;;;5054664;28;20025;-57
2023/12/20 11:07:23;;;;;;;1.88;0.82;;;;;;;;;;5054926;28;20171;-57
2023/12/20 11:09:54;;;;;;;2.38;0.70;;;;;;;;;;5055353;28;20029;-55
2023/12/20 11:12:32;;;;;;;4.15;1.05;;;;;;;;;;5054769;28;20561;-55
2023/12/20 11:15:03;;;;;;;9.45;1.27;;;;;;;;;;5055066;28;20021;-58
2023/12/20 11:17:30;;;;;;;2.85;0.80;;;;;;;;;;5054606;28;20029;-57
2023/12/20 11:19:56;;;;;;;1.60;0.98;;;;;;;;;;5054565;28;20028;-56
2023/12/20 11:22:22;;;;;;;6.82;1.30;;;;;;;;;;5054559;28;20104;-54
2023/12/20 11:24:48;;;;;;;6.38;1.95;;;;;;;;;;5054779;28;20104;-56
2023/12/20 11:27:15;;;;;;;3.10;1.15;;;;;;;;;;5055036;28;20028;-57
2023/12/20 11:29:41;;;;;;;2.88;1.35;;;;;;;;;;5054586;28;20060;-55
2023/12/20 11:32:28;;;;;;;3.30;0.88;;;;;;;;;;5054954;28;20025;-57
2023/12/20 11:34:58;;;;;;;1.70;1.10;;;;;;;;;;5054391;28;20462;-57
2023/12/20 11:37:34;;;;;;;2.78;1.17;;;;;;;;;;5054678;28;20032;-56
2023/12/20 11:40:03;;;;;;;2.45;1.17;;;;;;;;;;5054876;28;20048;-57
2023/12/20 11:42:34;;;;;;;3.40;0.87;;;;;;;;;;5055072;28;20078;-57
2023/12/20 11:45:00;;;;;;;4.35;1.23;;;;;;;;;;5054265;28;20256;-55
2023/12/20 11:47:26;;;;;;;3.72;1.08;;;;;;;;;;5053906;28;20074;-57
2023/12/20 11:49:52;;;;;;;6.28;1.45;;;;;;;;;;5054370;28;20029;-56
2023/12/20 11:52:18;;;;;;;3.40;0.95;;;;;;;;;;5054577;28;20032;-56
2023/12/20 11:54:43;;;;;;;4.07;1.63;;;;;;;;;;5053705;28;20082;-57
2023/12/20 11:57:10;;;;;;;2.92;1.10;;;;;;;;;;5053535;28;20025;-57
2023/12/20 11:59:37;;;;;;;2.97;1.17;;;;;;;;;;5053387;28;20494;-56
2023/12/20 12:02:03;;;;;;;2.35;1.35;;;;;;;;;;5054366;28;20120;-58
2023/12/20 12:04:29;;;;;;;3.20;1.58;;;;;;;;;;5054440;28;20060;-58
2023/12/20 12:06:55;;;;;;;1.58;0.55;;;;;;;;;;5053890;28;20473;-58
2023/12/20 12:09:20;;;;;;;1.23;0.52;;;;;;;;;;5054036;28;20032;-55
2023/12/20 12:11:47;;;;;;;2.65;0.80;;;;;;;;;;5053755;28;20048;-57
2023/12/20 12:14:13;;;;;;;2.05;1.08;;;;;;;;;;5053815;28;20059;-56
2023/12/20 12:16:39;;;;;;;2.13;1.20;;;;;;;;;;5053815;28;20078;-57
2023/12/20 12:19:05;;;;;;;1.55;1.08;;;;;;;;;;5054446;28;20033;-57
2023/12/20 12:21:30;;;;;;;3.30;1.20;;;;;;;;;;5054510;28;20502;-56
2023/12/20 12:24:09;;;;;;;4.95;1.40;;;;;;;;;;5053712;28;20466;-57
2023/12/20 12:26:35;;;;;;;3.85;1.83;;;;;;;;;;5053627;28;20404;-57
2023/12/20 12:29:01;;;;;;;4.38;1.45;;;;;;;;;;5054512;28;20033;-58
2023/12/20 12:31:27;;;;;;;13.23;3.28;;;;;;;;;;5054327;28;20036;-55
2023/12/20 12:33:53;;;;;;;5.40;3.65;;;;;;;;;;5053787;28;20049;-56
2023/12/20 12:36:19;;;;;;;4.45;1.00;;;;;;;;;;5053767;28;20070;-58
2023/12/20 12:38:45;;;;;;;8.07;1.65;;;;;;;;;;5054021;28;20135;-57
2023/12/20 12:41:13;;;;;;;4.85;1.48;;;;;;;;;;5053980;28;20033;-58
2023/12/20 12:43:39;;;;;;;8.32;1.42;;;;;;;;;;5057639;28;20025;-57
2023/12/20 12:46:05;;;;;;;4.28;1.08;;;;;;;;;;5057510;28;20378;-58
2023/12/20 12:48:31;;;;;;;2.72;1.10;;;;;;;;;;5058051;28;20029;-59
2023/12/20 12:50:59;;;;;;;2.13;0.77;;;;;;;;;;5057373;28;20033;-58
2023/12/20 12:53:25;;;;;;;1.50;0.60;;;;;;;;;;5058186;28;20025;-57
2023/12/20 12:55:51;;;;;;;2.53;1.23;;;;;;;;;;5057401;28;20049;-57
2023/12/20 12:58:17;;;;;;;0.93;0.45;;;;;;;;;;5057138;28;20036;-58
2023/12/20 13:00:43;;;;;;;6.72;1.58;;;;;;;;;;5057646;28;20389;-58
2023/12/20 13:03:09;;;;;;;5.03;0.95;;;;;;;;;;5057580;28;20032;-58
2023/12/20 13:05:35;;;;;;;2.88;1.05;;;;;;;;;;5057608;28;20025;-58
2023/12/20 13:08:01;;;;;;;2.45;0.77;;;;;;;;;;5057578;28;20036;-54
2023/12/20 13:10:27;;;;;;;2.65;1.10;;;;;;;;;;5057158;28;20029;-57
2023/12/20 13:12:53;;;;;;;1.30;0.73;;;;;;;;;;5056694;28;20033;-56
2023/12/20 13:15:19;;;;;;;3.00;0.93;;;;;;;;;;5056959;28;20199;-56
2023/12/20 13:17:46;;;;;;;3.42;0.88;;;;;;;;;;5057745;28;20036;-58
2023/12/20 13:20:12;;;;;;;2.17;1.02;;;;;;;;;;5056942;28;20103;-57
2023/12/20 13:22:38;;;;;;;4.80;1.05;;;;;;;;;;5057190;28;20029;-57
2023/12/20 13:25:04;;;;;;;3.42;1.38;;;;;;;;;;5056566;28;20032;-58
2023/12/20 13:27:30;;;;;;;2.38;0.73;;;;;;;;;;5056916;28;20036;-58
2023/12/20 13:29:56;;;;;;;3.10;1.35;;;;;;;;;;5057383;28;20347;-57
2023/12/20 13:32:22;;;;;;;3.40;0.82;;;;;;;;;;5056437;28;20036;-58
2023/12/20 13:34:48;;;;;;;1.85;0.93;;;;;;;;;;5056958;28;20025;-58
2023/12/20 13:37:14;;;;;;;3.85;1.15;;;;;;;;;;5056760;28;20033;-57
2023/12/20 13:39:41;;;;;;;1.85;0.88;;;;;;;;;;5056898;28;20035;-57
2023/12/20 13:42:07;;;;;;;5.13;1.88;;;;;;;;;;5056495;28;20033;-57
2023/12/20 13:44:33;;;;;;;1.42;0.80;;;;;;;;;;5056869;28;20025;-57
2023/12/20 13:47:01;;;;;;;4.43;0.90;;;;;;;;;;5057002;28;20371;-58
2023/12/20 13:49:27;;;;;;;4.97;1.40;;;;;;;;;;5056391;28;20029;-56
2023/12/20 13:51:54;;;;;;;3.45;1.23;;;;;;;;;;5056435;28;20023;-57
2023/12/20 13:54:22;;;;;;;1.45;0.77;;;;;;;;;;5054729;28;20383;-56
2023/12/20 13:56:48;;;;;;;7.90;1.20;;;;;;;;;;5057468;28;20107;-55
2023/12/20 13:59:15;;;;;;;4.10;1.02;;;;;;;;;;5055982;28;20092;-55
2023/12/20 14:01:41;;;;;;;3.33;0.73;;;;;;;;;;5056011;28;20080;-56
2023/12/20 14:04:07;;;;;;;3.20;0.85;;;;;;;;;;5054928;28;20087;-55
2023/12/20 14:06:33;;;;;;;4.55;1.00;;;;;;;;;;5056644;28;20443;-55
2023/12/20 14:09:05;;;;;;;3.55;0.88;;;;;;;;;;5056534;28;20037;-56
2023/12/20 14:11:31;;;;;;;2.08;0.85;;;;;;;;;;5056022;28;20040;-56
2023/12/20 14:13:58;;;;;;;3.28;0.50;;;;;;;;;;5056480;28;20029;-52
2023/12/20 14:16:24;;;;;;;1.00;0.32;;;;;;;;;;5056494;28;20035;-56
2023/12/20 14:18:57;;;;;;;1.90;0.85;;;;;;;;;;5056295;28;20033;-56
2023/12/20 14:21:23;;;;;;;3.50;1.02;;;;;;;;;;5055703;28;20033;-53
2023/12/20 14:23:49;;;;;;;2.25;0.77;;;;;;;;;;5055641;28;20032;-55
2023/12/20 14:26:15;;;;;;;2.03;0.70;;;;;;;;;;5055765;28;20040;-54
2023/12/20 14:28:42;;;;;;;3.60;0.80;;;;;;;;;;5055702;28;20036;-55
2023/12/20 14:31:10;;;;;;;4.47;0.80;;;;;;;;;;5055685;28;20398;-56
2023/12/20 14:33:37;;;;;;;1.23;0.60;;;;;;;;;;5055487;28;20463;-57
2023/12/20 14:36:05;;;;;;;2.22;0.90;;;;;;;;;;5056335;28;20033;-56
2023/12/20 14:38:31;;;;;;;3.70;0.90;;;;;;;;;;5055912;28;20452;-53